Arcadia, Kansas
Current Conditions -  °F | °C
As of 9:55 AM on Thursday 30 Oct 2014 (Local Time) from KPTS Reporting Station
Broken Clouds Broken Clouds  
Wind Chill: 57°   Ceiling: 12000
Heat Index: 57°   Visibility: 10mi
Dew Point: 46°   Wind: 15mph
Humidity: 66%   Direction: 240°WSW
Pressure: 30.05"   Gusts: 21mph
Location:  37.64°N, 94.62°W
Report Text: KPTS 301455Z AUTO 24013G18KT 10SM SCT080 SCT100 BKN120 14/08 A3005 RMK AO2 T01380076
Loading
Personal Weather Stations






























Interactive Weather Map
Tropical Storm Tracking
New forecast layout! Learn more

10-Day Weather Forecast

Advertisements
Track Severe Weather on mobile